Time;durP1;ratioP1;P1;durP2;ratioP2;P2;SDS_P1;SDS_P2;PMS_P1;PMS_P2;Temp;Humidity;BMP_temperature;BMP_pressure;BME280_temperature;BME280_humidity;BME280_pressure;Samples;Min_cycle;Max_cycle;Signal;HPM_P1;HPM_P2
2022/05/10 00:00:32;;;;;;;8.25;7.45;;;;;;;21.24;60.07;101709.50;4999749;28;20045;-74
2022/05/10 00:03:02;;;;;;;9.05;8.15;;;;;;;21.23;60.05;101711.34;5001502;28;20422;-74
2022/05/10 00:05:39;;;;;;;9.38;7.30;;;;;;;21.23;60.00;101708.63;5000840;28;20046;-75
2022/05/10 00:08:11;;;;;;;8.70;7.60;;;;;;;21.22;60.16;101701.50;5000880;28;20069;-74
2022/05/10 00:10:40;;;;;;;8.50;7.70;;;;;;;21.22;60.04;101698.81;5000417;28;20045;-75
2022/05/10 00:13:07;;;;;;;8.77;7.72;;;;;;;21.22;60.17;101697.97;5000957;28;20046;-75
2022/05/10 00:15:35;;;;;;;8.02;7.28;;;;;;;21.22;60.07;101693.44;5000462;28;20046;-75
2022/05/10 00:18:03;;;;;;;10.82;7.68;;;;;;;21.21;60.01;101691.72;5000085;28;20047;-75
2022/05/10 00:20:30;;;;;;;8.88;7.97;;;;;;;21.22;60.00;101693.44;5001345;28;20042;-75
2022/05/10 00:22:58;;;;;;;8.52;7.68;;;;;;;21.22;60.22;101692.59;5000640;28;20042;-75
2022/05/10 00:25:28;;;;;;;10.05;7.82;;;;;;;21.22;60.11;101690.75;5000466;28;20065;-74
2022/05/10 00:27:57;;;;;;;8.82;7.45;;;;;;;21.22;59.95;101690.75;5000093;28;20505;-75
2022/05/10 00:30:24;;;;;;;8.75;7.95;;;;;;;21.20;59.97;101687.34;5000201;28;20061;-75
2022/05/10 00:32:53;;;;;;;8.43;7.63;;;;;;;21.21;59.96;101689.03;5000569;28;20054;-75
2022/05/10 00:35:27;;;;;;;9.27;8.40;;;;;;;21.21;59.88;101691.72;5000889;28;20051;-75
2022/05/10 00:37:58;;;;;;;9.75;8.75;;;;;;;21.21;59.88;101690.88;5001096;28;20390;-76
2022/05/10 00:40:30;;;;;;;7.93;7.18;;;;;;;21.20;59.89;101687.34;5000064;28;20394;-75
2022/05/10 00:43:00;;;;;;;9.27;8.40;;;;;;;21.20;59.84;101691.88;5000471;28;20053;-75
2022/05/10 00:45:51;;;;;;;8.30;7.50;;;;;;;21.19;59.84;101685.63;5000373;28;20061;-75
2022/05/10 00:48:47;;;;;;;8.85;8.05;;;;;;;21.19;59.84;101685.63;5000666;28;20418;-75
2022/05/10 00:51:39;;;;;;;8.75;7.90;;;;;;;21.20;59.83;101686.47;5000920;28;20050;-75
2022/05/10 00:54:41;;;;;;;8.20;7.50;;;;;;;21.19;59.72;101679.41;5000364;28;20054;-75
2022/05/10 00:57:22;;;;;;;9.02;8.18;;;;;;;21.19;59.73;101677.56;4998639;28;20051;-75
2022/05/10 01:00:08;;;;;;;9.13;8.32;;;;;;;21.18;59.74;101686.59;4997859;28;20046;-75
2022/05/10 01:03:00;;;;;;;9.05;8.07;;;;;;;21.19;59.78;101688.31;4996859;28;20057;-75
2022/05/10 01:06:11;;;;;;;9.55;8.00;;;;;;;21.18;59.78;101683.03;4997645;28;20066;-75
2022/05/10 01:08:52;;;;;;;9.48;7.78;;;;;;;21.17;59.65;101690.28;4996272;28;20061;-75
2022/05/10 01:11:27;;;;;;;8.48;7.68;;;;;;;21.18;59.64;101689.28;4998132;28;20046;-75
2022/05/10 01:14:21;;;;;;;8.07;7.38;;;;;;;21.17;59.70;101690.28;4997429;28;20050;-75
2022/05/10 01:16:48;;;;;;;8.13;7.43;;;;;;;21.17;59.57;101679.50;4996787;28;20054;-75
2022/05/10 01:19:16;;;;;;;8.13;7.32;;;;;;;21.17;59.77;101678.66;4996619;28;20164;-75
2022/05/10 01:22:08;;;;;;;8.63;7.65;;;;;;;21.17;59.65;101674.09;4996897;28;20045;-75
2022/05/10 01:25:15;;;;;;;8.90;8.07;;;;;;;21.16;59.53;101667.03;4997268;28;20061;-76
2022/05/10 01:27:49;;;;;;;9.43;8.52;;;;;;;21.17;59.69;101681.34;5034283;28;20065;-74
2022/05/10 01:30:28;;;;;;;8.82;8.02;;;;;;;21.16;59.53;101677.78;5034221;28;20077;-75
2022/05/10 01:35:58;;;;;;;8.32;7.53;;;;;;;21.16;59.44;101675.09;5034557;28;20512;-74
2022/05/10 01:38:34;;;;;;;8.40;7.70;;;;;;;21.16;59.40;101680.47;5034446;28;20061;-74
2022/05/10 01:41:23;;;;;;;8.07;7.28;;;;;;;21.15;59.59;101684.16;5034128;28;20049;-75
2022/05/10 01:44:03;;;;;;;8.52;7.72;;;;;;;21.16;59.53;101685.03;5034471;28;20053;-75
2022/05/10 01:46:32;;;;;;;9.02;8.18;;;;;;;21.15;59.56;101676.09;5031936;28;20054;-75
2022/05/10 01:49:26;;;;;;;8.00;7.20;;;;;;;21.16;59.52;101675.09;5033782;28;20556;-75
2022/05/10 01:52:18;;;;;;;9.88;7.95;;;;;;;21.15;59.53;101675.22;5016482;28;20053;-74
2022/05/10 01:55:06;;;;;;;8.35;7.50;;;;;;;21.15;59.52;101672.53;5034154;28;20058;-74
2022/05/10 01:57:38;;;;;;;12.77;9.13;;;;;;;21.15;59.45;101676.09;5033880;28;20084;-75
2022/05/10 02:00:08;;;;;;;8.35;7.65;;;;;;;21.15;59.52;101670.69;5017084;28;20052;-75
2022/05/10 02:02:47;;;;;;;9.70;8.70;;;;;;;21.15;59.57;101672.53;5030656;28;20450;-75
2022/05/10 02:05:22;;;;;;;10.07;8.75;;;;;;;21.15;59.47;101678.78;4996725;28;20050;-75
2022/05/10 02:07:55;;;;;;;8.45;7.65;;;;;;;21.14;59.43;101671.66;4995262;28;20134;-75
2022/05/10 02:10:30;;;;;;;8.50;7.72;;;;;;;21.14;59.40;101668.13;4996186;28;20050;-75
2022/05/10 02:13:05;;;;;;;8.73;7.78;;;;;;;21.14;59.41;101671.66;4995175;28;20050;-75
2022/05/10 02:15:39;;;;;;;8.65;7.85;;;;;;;21.13;59.38;101661.88;4995596;28;20071;-75
2022/05/10 02:18:18;;;;;;;10.80;8.77;;;;;;;21.14;59.35;101660.03;4995003;28;20061;-75
2022/05/10 02:21:01;;;;;;;8.55;7.72;;;;;;;21.14;59.34;101660.88;4996456;28;20038;-75
2022/05/10 02:24:04;;;;;;;8.90;7.97;;;;;;;21.13;59.19;101661.03;4996092;28;20414;-75
2022/05/10 02:26:39;;;;;;;8.23;7.53;;;;;;;21.13;59.25;101658.34;5001059;28;20073;-75
2022/05/10 02:29:16;;;;;;;8.40;7.07;;;;;;;21.12;59.18;101654.78;4994849;28;20050;-75
2022/05/10 02:34:54;;;;;;;8.55;7.75;;;;;;;21.12;59.19;101657.47;4994220;28;20491;-75
2022/05/10 02:37:22;;;;;;;9.38;8.48;;;;;;;21.12;59.12;101652.09;4995313;28;20506;-75
2022/05/10 02:39:50;;;;;;;8.07;6.82;;;;;;;21.12;59.14;101646.72;4995457;28;20046;-75
2022/05/10 02:42:20;;;;;;;9.13;8.23;;;;;;;21.13;59.10;101648.41;4995038;28;20495;-74
2022/05/10 02:44:50;;;;;;;9.07;7.95;;;;;;;21.12;59.06;101648.56;4995733;28;20084;-75
2022/05/10 02:47:28;;;;;;;8.32;7.53;;;;;;;21.11;59.08;101650.38;4996437;28;20058;-75
2022/05/10 02:49:56;;;;;;;8.32;7.50;;;;;;;21.12;59.00;101648.56;4996047;28;20053;-75
2022/05/10 02:52:23;;;;;;;8.63;7.72;;;;;;;21.11;59.14;101645.00;4995659;28;20383;-75
2022/05/10 02:55:09;;;;;;;8.70;7.88;;;;;;;21.11;58.90;101636.94;4994915;28;20050;-75
2022/05/10 02:57:37;;;;;;;9.48;8.30;;;;;;;21.11;59.21;101638.75;4995330;28;20474;-75
2022/05/10 03:00:06;;;;;;;8.82;8.02;;;;;;;21.11;59.08;101638.75;4995138;28;20053;-74
2022/05/10 03:02:39;;;;;;;8.75;7.85;;;;;;;21.10;59.08;101637.88;4994992;28;20049;-75
2022/05/10 03:05:08;;;;;;;10.60;8.45;;;;;;;21.11;59.03;101642.31;4994796;28;20054;-75
2022/05/10 03:07:35;;;;;;;8.98;8.18;;;;;;;21.11;58.93;101638.75;4995062;28;20050;-74
2022/05/10 03:10:03;;;;;;;9.05;8.15;;;;;;;21.10;58.94;101642.41;4995457;28;20050;-75
2022/05/10 03:12:31;;;;;;;8.55;7.68;;;;;;;21.11;58.53;101645.00;4994926;28;20042;-75
2022/05/10 03:15:04;;;;;;;8.15;7.45;;;;;;;21.09;58.89;101638.88;4995058;28;20065;-75
2022/05/10 03:17:32;;;;;;;8.60;7.80;;;;;;;21.10;58.85;101640.56;4995218;28;20051;-75
2022/05/10 03:19:59;;;;;;;8.55;7.80;;;;;;;21.10;58.85;101642.41;4994090;28;20046;-75
2022/05/10 03:22:27;;;;;;;8.98;8.07;;;;;;;21.09;58.86;101644.25;4994338;28;20044;-75
2022/05/10 03:24:54;;;;;;;8.43;7.68;;;;;;;21.09;58.69;101641.56;4994380;28;20057;-75
2022/05/10 03:27:29;;;;;;;9.85;8.95;;;;;;;21.09;58.83;101638.88;4995069;28;20053;-75
2022/05/10 03:29:56;;;;;;;8.52;7.72;;;;;;;21.09;58.80;101640.72;4995080;28;20054;-75
2022/05/10 03:32:23;;;;;;;9.38;8.30;;;;;;;21.10;58.73;101647.81;4994632;28;20053;-75
2022/05/10 03:34:59;;;;;;;9.20;8.20;;;;;;;21.08;58.75;101645.25;4994422;28;20394;-75
2022/05/10 03:37:30;;;;;;;8.98;8.07;;;;;;;21.09;58.65;101649.63;4994554;28;20053;-75
2022/05/10 03:39:59;;;;;;;9.68;8.70;;;;;;;21.09;58.54;101643.41;4995473;28;20053;-75
2022/05/10 03:42:27;;;;;;;10.48;9.48;;;;;;;21.10;58.74;101647.81;4995026;28;20046;-75
2022/05/10 03:44:55;;;;;;;9.43;8.38;;;;;;;21.08;58.91;101650.63;4994330;28;20054;-75
2022/05/10 03:47:26;;;;;;;9.25;8.43;;;;;;;21.08;58.76;101650.63;4994130;28;20050;-75
2022/05/10 03:49:55;;;;;;;9.50;8.40;;;;;;;21.08;58.76;101647.09;4994731;28;20395;-75
2022/05/10 03:52:22;;;;;;;8.80;8.00;;;;;;;21.07;58.67;101653.47;4994195;28;20471;-75
2022/05/10 03:54:51;;;;;;;9.32;8.52;;;;;;;21.08;58.62;101649.78;4992796;28;20057;-75
2022/05/10 03:57:20;;;;;;;8.75;7.53;;;;;;;21.07;58.68;101654.31;4994480;28;20414;-75
2022/05/10 03:59:47;;;;;;;9.23;8.25;;;;;;;21.08;58.68;101655.16;4994820;28;20050;-75
2022/05/10 04:02:16;;;;;;;8.60;7.80;;;;;;;21.07;58.63;101661.53;4994220;28;20046;-75
2022/05/10 04:04:43;;;;;;;9.40;8.48;;;;;;;21.07;58.68;101654.31;4994088;28;20061;-75
2022/05/10 04:07:10;;;;;;;9.27;8.38;;;;;;;21.07;58.68;101662.38;4992953;28;20110;-75
2022/05/10 04:09:38;;;;;;;9.20;8.35;;;;;;;21.07;58.70;101664.22;4994250;28;20065;-74
2022/05/10 04:12:06;;;;;;;8.35;7.65;;;;;;;21.08;58.61;101668.63;4992814;28;20058;-75
2022/05/10 04:14:33;;;;;;;8.80;8.00;;;;;;;21.07;58.69;101669.63;4994340;28;20054;-75
2022/05/10 04:17:01;;;;;;;8.73;7.78;;;;;;;21.07;58.75;101669.63;4993732;28;20518;-75
2022/05/10 04:19:28;;;;;;;8.60;7.65;;;;;;;21.07;58.69;101675.00;4993640;28;20045;-75
2022/05/10 04:21:56;;;;;;;9.05;7.72;;;;;;;21.07;58.65;101681.22;4994520;28;20482;-75
2022/05/10 04:24:23;;;;;;;8.73;7.80;;;;;;;21.06;58.72;101675.94;4993971;28;20066;-74
2022/05/10 04:26:51;;;;;;;9.23;8.35;;;;;;;21.06;58.73;101676.81;4994093;28;20058;-75
2022/05/10 04:29:18;;;;;;;9.05;8.15;;;;;;;21.06;58.64;101684.88;4994819;28;20055;-75
2022/05/10 04:31:46;;;;;;;9.57;8.57;;;;;;;21.06;58.63;101678.63;4995811;28;20050;-75
2022/05/10 04:34:14;;;;;;;8.63;7.88;;;;;;;21.06;58.59;101684.88;4996414;28;20054;-75
2022/05/10 04:36:41;;;;;;;9.20;8.13;;;;;;;21.06;58.64;101681.34;4996699;28;20046;-75
2022/05/10 04:39:08;;;;;;;8.50;7.65;;;;;;;21.05;58.82;101679.63;4997114;28;20383;-75
2022/05/10 04:41:38;;;;;;;9.25;8.43;;;;;;;21.06;58.67;101682.19;4998083;28;20407;-75
2022/05/10 04:44:08;;;;;;;8.27;7.47;;;;;;;21.06;58.81;101686.72;4997988;28;20406;-75
2022/05/10 04:46:38;;;;;;;8.52;7.70;;;;;;;21.06;58.80;101690.25;4996490;28;20054;-75
2022/05/10 04:49:08;;;;;;;7.82;7.05;;;;;;;21.06;58.69;101689.41;4998160;28;20061;-75
2022/05/10 04:51:36;;;;;;;8.40;7.63;;;;;;;21.06;58.71;101689.41;4997646;28;20058;-75
2022/05/10 04:54:04;;;;;;;8.50;7.60;;;;;;;21.05;58.64;101696.63;4997704;28;20053;-75
2022/05/10 04:56:32;;;;;;;8.88;7.97;;;;;;;21.05;58.73;101693.94;4997076;28;20050;-75
2022/05/10 04:58:59;;;;;;;8.55;7.75;;;;;;;21.05;58.78;101693.94;4997224;28;20053;-73
2022/05/10 05:01:30;;;;;;;9.18;8.32;;;;;;;21.05;58.58;101693.94;4997005;28;20398;-75
2022/05/10 05:04:01;;;;;;;8.65;7.85;;;;;;;21.05;58.66;101698.47;4996383;28;20053;-74
2022/05/10 05:06:29;;;;;;;8.98;8.07;;;;;;;21.04;58.74;101703.00;4997501;28;20493;-74
2022/05/10 05:08:57;;;;;;;9.07;7.22;;;;;;;21.05;58.63;101706.56;4997150;28;20046;-74
2022/05/10 05:11:25;;;;;;;8.30;7.50;;;;;;;21.05;58.65;101720.88;4997582;28;20046;-75
2022/05/10 05:13:53;;;;;;;8.60;7.72;;;;;;;21.05;58.63;101715.47;4997407;28;20051;-75
2022/05/10 05:16:20;;;;;;;8.38;7.68;;;;;;;21.04;58.76;101712.91;4997283;28;20050;-74
2022/05/10 05:18:48;;;;;;;8.85;7.75;;;;;;;21.04;58.74;101718.31;4997250;28;20150;-74
2022/05/10 05:21:15;;;;;;;8.38;7.35;;;;;;;21.04;59.04;101718.31;4997182;28;20046;-75
2022/05/10 05:23:44;;;;;;;8.43;7.63;;;;;;;21.04;58.77;101719.16;4996582;28;20061;-75
2022/05/10 05:26:12;;;;;;;9.05;8.15;;;;;;;21.04;58.74;101721.84;4997536;28;20045;-75
2022/05/10 05:28:39;;;;;;;8.43;7.63;;;;;;;21.04;58.96;101723.69;4997253;28;20051;-75
2022/05/10 05:31:09;;;;;;;7.90;7.20;;;;;;;21.05;58.69;101728.09;4996743;28;20529;-75
2022/05/10 05:33:38;;;;;;;8.43;7.72;;;;;;;21.04;58.62;101729.06;4996020;28;20042;-75
2022/05/10 05:36:06;;;;;;;11.50;7.75;;;;;;;21.04;58.85;101729.94;4995982;28;20061;-75
2022/05/10 05:38:35;;;;;;;7.78;7.00;;;;;;;21.04;58.75;101731.75;4996379;28;20157;-75
2022/05/10 05:41:03;;;;;;;8.52;7.72;;;;;;;21.04;58.83;101732.63;4996182;28;20501;-75
2022/05/10 05:43:30;;;;;;;8.68;7.88;;;;;;;21.04;58.72;101729.06;4994975;28;20098;-75
2022/05/10 05:45:58;;;;;;;8.20;7.50;;;;;;;21.02;58.74;101729.19;4995085;28;20372;-75
2022/05/10 05:48:25;;;;;;;8.35;7.47;;;;;;;21.03;58.72;101730.91;4996389;28;20154;-75
2022/05/10 05:50:53;;;;;;;11.68;7.70;;;;;;;21.03;58.72;101739.00;4996500;28;20498;-75
2022/05/10 05:53:21;;;;;;;9.23;7.60;;;;;;;21.02;58.78;101741.78;4996140;28;20106;-75
2022/05/10 05:55:48;;;;;;;7.35;6.75;;;;;;;21.03;58.75;101743.53;4996814;28;20043;-75
2022/05/10 05:58:16;;;;;;;8.65;7.85;;;;;;;21.03;58.71;101738.13;4997010;28;20053;-75
2022/05/10 06:00:44;;;;;;;8.85;7.95;;;;;;;21.03;58.73;101744.38;4996697;28;20049;-75
2022/05/10 06:03:12;;;;;;;8.82;7.97;;;;;;;21.03;58.77;101743.53;4996932;28;20057;-75
2022/05/10 06:05:39;;;;;;;7.68;6.88;;;;;;;21.03;58.73;101744.38;4995608;28;20398;-75
2022/05/10 06:08:08;;;;;;;8.60;7.70;;;;;;;21.04;58.66;101745.22;4995529;28;20050;-75
2022/05/10 06:10:38;;;;;;;8.45;7.65;;;;;;;21.04;58.83;101747.91;4995998;28;20061;-75
2022/05/10 06:13:05;;;;;;;8.38;7.57;;;;;;;21.03;58.77;101740.81;4996393;28;20042;-75
2022/05/10 06:15:33;;;;;;;7.63;6.95;;;;;;;21.03;58.82;101744.38;4995595;28;20422;-75
2022/05/10 06:18:03;;;;;;;7.65;7.05;;;;;;;21.03;58.73;101738.13;4993983;28;20487;-76
2022/05/10 06:20:31;;;;;;;7.47;6.78;;;;;;;21.03;58.87;101740.81;4995271;28;20050;-75
2022/05/10 06:22:59;;;;;;;7.95;7.25;;;;;;;21.03;59.08;101741.69;4995731;28;20053;-75
2022/05/10 06:25:27;;;;;;;8.23;7.53;;;;;;;21.04;59.03;101745.22;4996283;28;20057;-75
2022/05/10 06:27:55;;;;;;;7.45;6.85;;;;;;;21.04;59.08;101740.69;4996124;28;20410;-75
2022/05/10 06:30:24;;;;;;;9.23;7.30;;;;;;;21.05;59.11;101746.94;4996188;28;20410;-74
2022/05/10 06:32:56;;;;;;;7.15;6.55;;;;;;;21.05;59.13;101746.94;4996109;28;20046;-74
2022/05/10 06:35:23;;;;;;;9.18;7.28;;;;;;;21.05;59.15;101752.31;4994923;28;20537;-75
2022/05/10 06:40:38;;;;;;;8.10;7.30;;;;;;;21.06;59.34;101748.63;4996988;28;20053;-76
2022/05/10 06:43:05;;;;;;;7.53;6.78;;;;;;;21.06;59.28;101754.88;4996780;28;20058;-82
2022/05/10 06:45:35;;;;;;;6.95;6.35;;;;;;;21.06;59.31;101754.03;4995422;28;20053;-75
2022/05/10 06:48:04;;;;;;;7.38;6.68;;;;;;;21.07;59.41;101753.91;4994561;28;20053;-74
2022/05/10 06:50:31;;;;;;;10.10;7.93;;;;;;;21.07;59.50;101756.63;4995280;28;20049;-74
2022/05/10 06:52:59;;;;;;;7.97;7.20;;;;;;;21.09;59.51;101761.88;4994863;28;20050;-75
2022/05/10 06:55:30;;;;;;;10.02;7.88;;;;;;;21.07;59.48;101750.38;4993863;28;20398;-75
2022/05/10 06:57:59;;;;;;;8.15;7.35;;;;;;;21.08;59.50;101760.16;4995259;28;20050;-75
2022/05/10 07:00:33;;;;;;;7.35;6.65;;;;;;;21.08;59.42;101755.63;4995405;28;20046;-74
2022/05/10 07:03:07;;;;;;;8.35;7.55;;;;;;;21.08;59.35;101752.09;4995198;28;20050;-76
2022/05/10 07:05:35;;;;;;;;;;;;;;;21.08;59.09;101755.63;4997095;28;20050;-76
2022/05/10 07:08:02;;;;;;;12.80;8.55;;;;;;;21.09;58.99;101751.09;4995620;28;19921;-77
2022/05/10 07:10:31;;;;;;;13.15;8.52;;;;;;;21.08;59.05;101757.47;4995058;28;20046;-76
2022/05/10 07:12:59;;;;;;;10.10;8.93;;;;;;;21.07;58.94;101756.63;4996151;28;20050;-77
2022/05/10 07:15:27;;;;;;;11.80;9.10;;;;;;;21.09;58.59;101754.66;4995326;28;20053;-77
2022/05/10 07:17:54;;;;;;;10.55;9.43;;;;;;;21.09;58.58;101751.94;4995289;28;20050;-77
2022/05/10 07:20:22;;;;;;;14.80;9.50;;;;;;;21.10;58.71;101752.81;4995477;28;20049;-77
2022/05/10 07:22:49;;;;;;;13.52;10.13;;;;;;;21.11;58.14;101752.69;4996272;28;20046;-77
2022/05/10 07:25:21;;;;;;;10.95;9.05;;;;;;;21.13;58.72;101750.72;4996831;28;20050;-76
2022/05/10 07:27:49;;;;;;;11.13;9.77;;;;;;;21.13;58.80;101750.72;4996857;28;20050;-77
2022/05/10 07:30:16;;;;;;;11.95;10.73;;;;;;;21.14;58.11;101749.75;4996175;28;20050;-76
2022/05/10 07:32:44;;;;;;;15.13;12.02;;;;;;;21.16;57.91;101753.19;4993595;28;20106;-75
2022/05/10 07:35:12;;;;;;;12.00;10.40;;;;;;;21.17;57.80;101749.50;4994004;28;20049;-76
2022/05/10 07:37:40;;;;;;;11.95;9.73;;;;;;;21.18;58.04;101748.53;4994776;28;20042;-75
2022/05/10 07:40:11;;;;;;;12.48;10.25;;;;;;;21.20;57.97;101751.97;4994506;28;20061;-75
2022/05/10 07:42:40;;;;;;;12.95;10.98;;;;;;;21.22;57.94;101743.75;4995457;28;20039;-76
2022/05/10 07:45:09;;;;;;;11.60;9.73;;;;;;;21.23;57.84;101742.81;4994212;28;20061;-75
2022/05/10 07:47:43;;;;;;;13.57;12.23;;;;;;;21.23;57.53;101740.09;4994858;28;20054;-75
2022/05/10 07:50:17;;;;;;;12.95;11.57;;;;;;;21.23;57.54;101740.97;4996572;28;20057;-74
2022/05/10 07:52:44;;;;;;;11.43;9.25;;;;;;;21.23;58.01;101737.41;4995177;28;20055;-76
2022/05/10 07:55:13;;;;;;;13.70;11.05;;;;;;;21.24;57.47;101731.03;4994247;28;20050;-77
2022/05/10 07:57:43;;;;;;;13.23;9.95;;;;;;;21.26;57.95;101733.59;4994746;28;20509;-75
2022/05/10 08:00:13;;;;;;;9.93;8.93;;;;;;;21.27;58.03;101729.91;4992908;28;20054;-74
2022/05/10 08:02:44;;;;;;;8.93;8.02;;;;;;;21.29;57.98;101730.66;4994701;28;20051;-75
2022/05/10 08:05:17;;;;;;;8.77;7.88;;;;;;;21.29;58.07;101733.34;4994413;28;20053;-75
2022/05/10 08:07:45;;;;;;;11.88;9.48;;;;;;;21.30;58.02;101737.75;4997137;28;20054;-75
2022/05/10 08:10:12;;;;;;;10.85;8.93;;;;;;;21.30;58.17;101724.28;4999112;28;20046;-75
2022/05/10 08:12:40;;;;;;;9.75;8.73;;;;;;;21.32;58.23;101731.31;4997847;28;20050;-75
2022/05/10 08:15:08;;;;;;;12.52;7.97;;;;;;;21.32;58.30;101731.31;4998312;28;20046;-75
2022/05/10 08:17:37;;;;;;;9.85;7.90;;;;;;;21.33;58.27;101721.38;4997636;28;20054;-75
2022/05/10 08:20:05;;;;;;;8.75;7.95;;;;;;;21.34;58.16;101717.72;4997713;28;20379;-75
2022/05/10 08:22:33;;;;;;;10.13;8.63;;;;;;;21.36;58.12;101723.84;4998302;28;20384;-75
2022/05/10 08:25:01;;;;;;;10.73;8.57;;;;;;;21.37;58.07;101720.16;4998078;28;20057;-75
2022/05/10 08:27:29;;;;;;;10.90;7.82;;;;;;;21.37;58.31;101714.78;4998920;28;20058;-75
2022/05/10 08:29:56;;;;;;;10.90;7.78;;;;;;;21.37;58.29;101710.25;4997631;28;20050;-75
2022/05/10 08:32:24;;;;;;;9.93;7.72;;;;;;;21.38;58.24;101714.66;4997840;28;20050;-75
2022/05/10 08:34:51;;;;;;;13.00;7.53;;;;;;;21.39;58.41;101718.19;4997577;28;20046;-75
2022/05/10 08:37:19;;;;;;;8.77;7.82;;;;;;;21.39;58.46;101711.00;4997296;28;20460;-75
2022/05/10 08:39:46;;;;;;;10.95;7.82;;;;;;;21.40;58.27;101706.47;4997382;28;20046;-75
2022/05/10 08:42:23;;;;;;;9.67;7.20;;;;;;;21.41;58.35;101714.41;4997723;28;20053;-75
2022/05/10 08:44:55;;;;;;;8.48;7.68;;;;;;;21.40;58.38;101711.84;4997254;28;20427;-75
2022/05/10 08:47:25;;;;;;;11.95;8.73;;;;;;;21.42;58.30;101709.88;4995676;28;20046;-75
2022/05/10 08:50:00;;;;;;;10.30;8.18;;;;;;;21.43;58.39;101703.50;4996903;28;20042;-75
2022/05/10 08:52:51;;;;;;;8.80;7.68;;;;;;;21.42;58.44;101704.47;4996645;28;20050;-75
2022/05/10 08:55:30;;;;;;;8.07;7.00;;;;;;;21.42;58.23;101705.34;4995784;28;20042;-75
2022/05/10 08:58:17;;;;;;;8.43;7.63;;;;;;;21.43;58.39;101701.69;4996875;28;20046;-75
2022/05/10 09:01:10;;;;;;;9.27;7.55;;;;;;;21.44;58.37;101697.16;4996008;28;20057;-75
2022/05/10 09:03:53;;;;;;;8.85;7.95;;;;;;;21.45;58.28;101698.84;4997570;28;20047;-75
2022/05/10 09:06:26;;;;;;;8.25;7.40;;;;;;;21.45;58.28;101698.84;4996716;28;20053;-75
2022/05/10 09:09:00;;;;;;;8.45;7.65;;;;;;;21.45;58.33;101696.16;4997701;28;20057;-75
2022/05/10 09:11:56;;;;;;;7.85;7.05;;;;;;;21.45;58.34;101696.16;4999949;28;20401;-75
2022/05/10 09:14:54;;;;;;;7.82;7.13;;;;;;;21.46;58.39;101697.84;4996674;28;20042;-75
2022/05/10 09:17:24;;;;;;;10.68;7.35;;;;;;;21.47;58.39;101696.88;4997413;28;20085;-75
2022/05/10 09:19:52;;;;;;;8.75;7.28;;;;;;;21.46;58.40;101695.16;4994632;28;20054;-75
2022/05/10 09:23:04;;;;;;;7.88;7.15;;;;;;;21.47;58.27;101692.38;4996575;28;20057;-75
2022/05/10 09:25:38;;;;;;;8.95;7.57;;;;;;;21.47;58.38;101694.19;4997050;28;20043;-75
2022/05/10 09:28:16;;;;;;;9.18;8.38;;;;;;;21.48;58.30;101691.38;4997680;28;20046;-75
2022/05/10 09:34:45;;;;;;;8.90;7.38;;;;;;;21.49;58.28;101697.63;4997657;28;20050;-75
2022/05/10 09:36:31;;;;;;;9.75;7.70;;;;;;;21.48;58.20;101685.13;4996135;28;20050;-75
2022/05/10 09:39:19;;;;;;;8.55;7.68;;;;;;;21.49;58.28;101689.53;4996536;28;20046;-75
2022/05/10 09:41:53;;;;;;;8.52;7.72;;;;;;;21.49;58.27;101686.84;4996086;28;20050;-75
2022/05/10 09:44:29;;;;;;;8.65;7.43;;;;;;;21.49;58.49;101684.16;4995940;28;20046;-75
2022/05/10 09:47:13;;;;;;;9.98;7.10;;;;;;;21.49;58.30;101686.84;4996844;28;20046;-76
2022/05/10 09:49:40;;;;;;;8.40;7.53;;;;;;;21.50;58.50;101680.47;4997353;28;20050;-75
2022/05/10 09:52:38;;;;;;;8.45;7.47;;;;;;;21.51;59.27;101689.41;4997070;28;20053;-76
2022/05/10 09:55:24;;;;;;;9.55;7.72;;;;;;;21.50;61.94;101691.25;4999585;28;20081;-75
2022/05/10 09:57:54;;;;;;;8.38;7.47;;;;;;;21.50;64.21;101688.53;4996376;28;20046;-76
2022/05/10 10:00:39;;;;;;;8.50;7.70;;;;;;;21.48;63.54;101690.53;4995800;28;20042;-75
2022/05/10 10:03:07;;;;;;;8.82;7.50;;;;;;;21.47;64.71;101686.09;4994771;28;20061;-75
2022/05/10 10:05:37;;;;;;;8.98;8.07;;;;;;;21.47;64.33;101688.78;4996256;28;20050;-76
2022/05/10 10:08:04;;;;;;;8.77;7.97;;;;;;;21.46;64.42;101684.38;4997448;28;20042;-75
2022/05/10 10:10:37;;;;;;;8.73;7.93;;;;;;;21.46;64.78;101689.78;4996748;28;20049;-75
2022/05/10 10:13:28;;;;;;;10.13;9.23;;;;;;;21.45;65.11;101680.00;4995888;28;20042;-75
2022/05/10 10:15:55;;;;;;;8.73;7.93;;;;;;;21.44;65.90;101676.44;4996109;28;20050;-76
2022/05/10 10:18:44;;;;;;;9.60;8.25;;;;;;;21.44;64.18;101683.69;4995971;28;20054;-75
2022/05/10 10:21:18;;;;;;;7.88;7.15;;;;;;;21.43;63.89;101674.75;4995907;28;20054;-75
2022/05/10 10:23:56;;;;;;;9.02;8.13;;;;;;;21.43;65.51;101671.16;4995081;28;20405;-75
2022/05/10 10:26:45;;;;;;;9.07;8.25;;;;;;;21.44;66.30;101672.91;4996218;28;20077;-75
2022/05/10 10:29:19;;;;;;;9.90;8.48;;;;;;;21.43;65.76;101676.56;4995869;28;20531;-75
2022/05/10 10:31:59;;;;;;;9.30;8.40;;;;;;;21.43;66.32;101665.78;4995138;28;20108;-75
2022/05/10 10:34:43;;;;;;;9.32;8.50;;;;;;;21.42;66.58;101672.16;4995955;28;20058;-75
2022/05/10 10:37:16;;;;;;;9.95;9.07;;;;;;;21.41;66.62;101665.91;4995251;28;20401;-75
2022/05/10 10:39:51;;;;;;;8.85;8.10;;;;;;;21.40;66.57;101666.91;4995336;28;20042;-75
2022/05/10 10:42:31;;;;;;;10.30;9.35;;;;;;;21.40;66.69;101652.59;4993599;28;20058;-75
2022/05/10 10:45:01;;;;;;;8.98;8.20;;;;;;;21.40;67.00;101649.88;4994787;28;20093;-74
2022/05/10 10:47:50;;;;;;;9.50;8.60;;;;;;;21.40;66.92;101655.28;4995738;28;20062;-74
2022/05/10 10:50:26;;;;;;;9.80;8.85;;;;;;;21.40;66.69;101649.88;4995327;28;20046;-75
2022/05/10 10:52:56;;;;;;;11.18;8.27;;;;;;;21.39;65.99;101649.03;4995186;28;20047;-75
2022/05/10 10:55:47;;;;;;;10.00;7.57;;;;;;;21.38;66.59;101644.59;4995800;28;20121;-75
2022/05/10 10:58:20;;;;;;;9.10;8.20;;;;;;;21.39;66.95;101643.66;5009736;28;20046;-75
2022/05/10 11:00:52;;;;;;;8.82;7.97;;;;;;;21.38;65.33;101639.22;4994335;28;20070;-76
2022/05/10 11:03:22;;;;;;;8.77;8.02;;;;;;;21.39;66.50;101637.38;4994404;28;20058;-75
2022/05/10 11:06:13;;;;;;;8.70;7.82;;;;;;;21.39;64.47;101640.06;4994878;28;20065;-75
2022/05/10 11:09:17;;;;;;;8.93;8.07;;;;;;;21.40;64.56;101633.72;4994122;28;20042;-76
2022/05/10 11:12:03;;;;;;;9.45;8.57;;;;;;;21.40;65.74;101625.66;4992957;28;20050;-76
2022/05/10 11:14:58;;;;;;;9.57;8.68;;;;;;;21.39;65.67;101627.50;4994303;28;20061;-76
2022/05/10 11:17:46;;;;;;;8.57;7.68;;;;;;;21.37;57.17;101617.81;4993506;28;20045;-75
2022/05/10 11:20:30;;;;;;;9.98;8.73;;;;;;;21.37;58.72;101617.81;4994342;28;20042;-75
2022/05/10 11:23:08;;;;;;;10.50;8.73;;;;;;;21.40;62.22;101621.13;4994389;28;20039;-75
2022/05/10 11:25:51;;;;;;;9.95;8.30;;;;;;;21.41;62.71;101621.97;4994137;28;20058;-75
2022/05/10 11:28:40;;;;;;;9.65;8.65;;;;;;;21.40;63.91;101621.13;4994460;28;20061;-75
2022/05/10 11:31:42;;;;;;;9.27;8.38;;;;;;;21.39;64.24;101616.72;4993953;28;20042;-75
2022/05/10 11:34:36;;;;;;;9.32;8.43;;;;;;;21.39;64.46;101615.84;4992753;28;20050;-75
2022/05/10 11:37:08;;;;;;;9.63;8.73;;;;;;;21.38;64.57;101606.91;4993980;28;20046;-75
2022/05/10 11:39:41;;;;;;;8.95;8.05;;;;;;;21.37;64.69;101605.19;4994047;28;20057;-74
2022/05/10 11:42:18;;;;;;;;;;;;;;;21.36;64.74;101600.78;4993323;28;20050;-75
2022/05/10 11:44:47;;;;;;;9.38;8.43;;;;;;;21.37;64.89;101596.25;4994827;28;19921;-75
2022/05/10 11:47:52;;;;;;;9.65;8.68;;;;;;;21.36;65.00;101597.25;4993430;28;20069;-75
2022/05/10 11:50:38;;;;;;;11.00;8.50;;;;;;;;;;4994870;28;20043;-75
2022/05/10 11:53:28;;;;;;;12.27;8.45;;;;;;;21.39;58.37;101595.16;4994926;28;20049;-77
2022/05/10 11:55:58;;;;;;;10.85;7.70;;;;;;;21.39;54.15;101589.78;4995535;28;20038;-76
2022/05/10 11:58:29;;;;;;;7.57;6.78;;;;;;;21.42;59.54;101588.66;4994561;28;20050;-76
2022/05/10 12:00:59;;;;;;;9.07;8.18;;;;;;;21.41;57.55;101586.94;4994196;28;20050;-76
2022/05/10 12:03:44;;;;;;;8.18;7.38;;;;;;;21.40;56.53;101578.00;4993413;28;20053;-75
2022/05/10 12:06:23;;;;;;;8.43;7.53;;;;;;;21.42;55.79;101577.88;4993312;28;20053;-75